Glasgow, MT

2:38 AM MDT on July 28, 2014 (GMT -0600)
Jordan (KJDN) Elev 2661 ft | 47.33 °N, 106.95 °W | Change Station

Current weather conditions updated 50 minutes ago

Clear
Clear
54 °F
Feels Like 54 °F
N
0
Wind Variable Wind from North
Gusts 10 mph

Today is forecast to be nearly the same temperature as yesterday.

Today
High -- | Low -- °F
--% Chance of Precip.
Yesterday
High -- | Low -- °F
Precip. -- in
5:36 AM 8:47 PM
New Moon, 2% visible
Pressure 30.26 in
Visibility -9999.0 miles
Clouds
Dew Point 40 °F
Humidity 59%
Rainfall 0.00 in
Snow Depth Not available.
UV Not available.
Pollen 6.20 out of 12
Air Quality Not available.
Flu Activity Not available.
METAR KJDN 280748Z AUTO 00000KT 12/04 A3028 RMK AO1 SLP245 T01220044

More Conditions Fewer Conditions

Pressure 30.26 in
Visibility -9999.0 miles
Clouds
Dew Point 40 °F
Humidity 59%
Rainfall 0.00 in
Snow Depth Not available.
UV Not available.
Pollen 6.20 out of 12
Air Quality Not available.
Flu Activity Not available.
METAR KJDN 280748Z AUTO 00000KT 12/04 A3028 RMK AO1 SLP245 T01220044

More Conditions Fewer Conditions

10-Day Weather Forecast

Almanac

Astronomy

Jul. 28, 2014 Rise Set
Actual Time 5:36 AM MDT 8:47 PM MDT
Civil Twilight 4:59 AM MDT 9:24 PM MDT
Nautical Twilight 4:10 AM MDT 10:13 PM MDT
Astronomical Twilight 3:08 AM MDT 11:13 PM MDT
Moon 7:33 AM MDT 9:15 PM MDT
Length of Visible Light 16h 25m
Length of Day
15h 11m
Tomorrow will be 2m 37s shorter.
New Moon, 2% of the Moon is Illuminated
Today
New Moon
Aug 3
First Quarter
Aug 10
Full
Aug 17
Last Quarter
Aug 25
New

Today's Extremes

State Highs State Lows

Community

WunderPhotos

Upload Photos

1,738,294 photos uploaded!

Nearby

Snow Depth

Station Depth Elevation
Crystal Lake 0 in 6050 ft
Spur Park 0 in 8100 ft
Onion Park 0 in 7410 ft
Stringer Creek 0 in 6550 ft
Porcupine 1 in 6500 ft

Earthquake Activity

City Distance Mag. Time & Date
No recent earthquake activity has been reported nearby.
Minimum magnitude displayed is 2.5.

Coastal Water Temperatures

Place Temperature
No Stations Reporting

Nearby Weather Stations

Station Location Temp. Dew Point Humidity Wind Precip. Elev Updated Type
nashua, Nashua, MT 55.2 °F 51 °F 86% ENE  at  7.8 mph 0.00 in / hr 2156 ft 2:00 AM MDT Normal
City Center - AA7AS, Glasgow, MT 60.8 °F 53 °F 75% SSE  at  2.7 mph - / hr 2090 ft 2:09 AM MDT Normal
Sturgeon Bay, Fort Peck, MT 66.2 °F 56 °F 71% ESE  at  0.0 mph 0.00 in / hr 2287 ft 2:31 AM MDT Normal

Show More Stations Show Fewer Stations